Time;durP1;ratioP1;P1;durP2;ratioP2;P2;SDS_P1;SDS_P2;PMS_P1;PMS_P2;Temp;Humidity;BMP_temperature;BMP_pressure;BME280_temperature;BME280_humidity;BME280_pressure;Samples;Min_cycle;Max_cycle;Signal;HPM_P1;HPM_P2
2024/03/20 00:00:46;;;;;;;102.80;43.40;;;;;;;0.26;100.00;101271.63;214753;1286;139843;-82
2024/03/20 00:05:46;;;;;;;91.90;38.90;;;;;;;0.24;100.00;101260.10;215941;1284;139160;-82
2024/03/20 00:10:47;;;;;;;83.30;37.30;;;;;;;0.24;100.00;101265.89;215499;1283;140198;-82
2024/03/20 00:15:48;;;;;;;72.10;34.40;;;;;;;0.25;100.00;101262.16;215565;1285;139037;-83
2024/03/20 00:20:48;;;;;;;82.80;36.20;;;;;;;0.25;100.00;101261.77;214775;1283;140735;-83
2024/03/20 00:25:50;;;;;;;95.50;40.60;;;;;;;0.25;100.00;101263.95;215886;1285;139377;-82
2024/03/20 00:30:51;;;;;;;94.60;39.60;;;;;;;0.25;100.00;101261.99;215069;1285;140827;-81
2024/03/20 00:35:51;;;;;;;84.50;37.60;;;;;;;0.24;100.00;101262.10;215755;1283;139037;-83
2024/03/20 00:40:52;;;;;;;95.40;38.10;;;;;;;0.24;100.00;101257.25;214396;1285;140518;-83
2024/03/20 00:45:53;;;;;;;85.60;37.30;;;;;;;0.22;100.00;101251.58;215113;1288;139225;-83
2024/03/20 00:50:53;;;;;;;82.00;35.00;;;;;;;0.20;100.00;101245.70;214568;1285;139974;-83
2024/03/20 00:55:53;;;;;;;77.60;34.00;;;;;;;0.17;100.00;101242.49;214779;1285;139411;-82
2024/03/20 01:00:54;;;;;;;83.00;34.80;;;;;;;0.13;100.00;101238.27;214487;1284;140287;-82
2024/03/20 01:05:55;;;;;;;83.50;35.50;;;;;;;0.10;100.00;101238.61;215128;1284;139112;-82
2024/03/20 01:10:56;;;;;;;79.90;39.10;;;;;;;0.07;100.00;101236.22;214814;1283;139738;-82
2024/03/20 01:15:56;;;;;;;105.50;43.40;;;;;;;0.05;100.00;101239.92;214730;1282;139431;-82
2024/03/20 01:20:57;;;;;;;86.60;37.90;;;;;;;0.02;100.00;101230.21;214411;1285;140695;-82
2024/03/20 01:25:57;;;;;;;73.10;36.40;;;;;;;-0.02;100.00;101225.23;214899;1286;139540;-83
2024/03/20 01:30:58;;;;;;;79.70;35.30;;;;;;;-0.06;100.00;101221.43;214400;1285;140481;-82
2024/03/20 01:36:00;;;;;;;81.30;35.80;;;;;;;-0.08;100.00;101220.80;214873;1288;139457;-82
2024/03/20 01:41:00;;;;;;;74.80;35.80;;;;;;;-0.11;100.00;101216.23;214635;1284;141493;-83
2024/03/20 01:46:23;;;;;;;83.60;38.00;;;;;;;-0.13;100.00;101216.80;215305;1283;139378;-81
2024/03/20 01:51:25;;;;;;;82.00;38.20;;;;;;;-0.16;100.00;101215.96;216435;1286;139898;-82
2024/03/20 01:56:26;;;;;;;93.60;41.30;;;;;;;-0.17;100.00;101211.93;215117;1287;141076;-82
2024/03/20 02:01:27;;;;;;;84.00;39.40;;;;;;;-0.20;100.00;101208.38;214777;1285;139389;-82
2024/03/20 02:06:28;;;;;;;83.50;38.40;;;;;;;-0.21;100.00;101210.23;214632;1285;140167;-82
2024/03/20 02:11:29;;;;;;;99.70;42.00;;;;;;;-0.22;100.00;101208.46;215234;1283;139444;-82
2024/03/20 02:16:29;;;;;;;88.20;39.60;;;;;;;-0.23;100.00;101198.86;214540;1287;139581;-82
2024/03/20 02:21:29;;;;;;;85.70;37.90;;;;;;;-0.25;100.00;101203.47;214905;1285;139574;-83
2024/03/20 02:26:30;;;;;;;146.90;50.40;;;;;;;-0.28;100.00;101202.52;214704;1288;140819;-83
2024/03/20 02:31:30;;;;;;;102.20;42.60;;;;;;;-0.31;100.00;101203.78;214938;1287;139324;-83
2024/03/20 02:36:31;;;;;;;102.70;42.10;;;;;;;-0.34;100.00;101202.63;214160;1285;143441;-81
2024/03/20 02:41:32;;;;;;;101.90;40.30;;;;;;;-0.37;100.00;101188.71;214217;1288;139487;-82
2024/03/20 02:46:32;;;;;;;88.60;38.10;;;;;;;-0.38;100.00;101172.34;213622;1285;142095;-83
2024/03/20 02:51:33;;;;;;;90.80;39.80;;;;;;;-0.41;100.00;101176.75;214168;1285;139351;-82
2024/03/20 02:56:33;;;;;;;132.00;45.70;;;;;;;-0.43;100.00;101178.23;213893;1286;139499;-82
2024/03/20 03:01:34;;;;;;;101.00;41.20;;;;;;;-0.45;100.00;101184.84;214348;1285;139553;-82
2024/03/20 03:06:34;;;;;;;119.70;46.30;;;;;;;-0.48;100.00;101188.28;213776;1282;141086;-82
2024/03/20 03:11:36;;;;;;;101.10;41.30;;;;;;;-0.50;100.00;101185.92;214852;1285;139514;-82
2024/03/20 03:16:37;;;;;;;96.40;40.60;;;;;;;-0.53;100.00;101177.90;213792;1285;140774;-82
2024/03/20 03:21:38;;;;;;;121.40;44.20;;;;;;;-0.55;100.00;101176.30;214436;1287;139374;-82
2024/03/20 03:26:38;;;;;;;202.00;63.60;;;;;;;-0.59;100.00;101187.73;213923;1288;141327;-82
2024/03/20 03:31:39;;;;;;;242.60;70.50;;;;;;;-0.62;100.00;101195.11;214307;1288;140199;-81
2024/03/20 03:36:40;;;;;;;131.90;50.20;;;;;;;-0.64;100.00;101186.07;213814;1285;139717;-82
2024/03/20 03:41:40;;;;;;;92.70;41.60;;;;;;;-0.67;100.00;101185.42;214253;1288;139820;-82
2024/03/20 03:46:41;;;;;;;85.70;38.60;;;;;;;-0.70;100.00;101179.73;213820;1283;140393;-82
2024/03/20 03:51:42;;;;;;;87.60;38.40;;;;;;;-0.73;100.00;101177.02;214156;1285;139396;-82
2024/03/20 03:56:42;;;;;;;84.50;38.70;;;;;;;-0.73;100.00;101176.90;213872;1284;140635;-82
2024/03/20 04:01:43;;;;;;;81.80;37.00;;;;;;;-0.73;100.00;101180.20;214142;1285;139241;-82
2024/03/20 04:06:44;;;;;;;94.20;40.20;;;;;;;-0.74;100.00;101190.10;214171;1287;163708;-84
2024/03/20 04:11:44;;;;;;;90.70;38.40;;;;;;;-0.75;100.00;101198.80;214603;1285;139410;-83
2024/03/20 04:16:45;;;;;;;94.40;40.60;;;;;;;-0.77;100.00;101195.64;214195;1288;139574;-83
2024/03/20 04:21:46;;;;;;;185.30;64.40;;;;;;;-0.79;100.00;101199.44;214288;1285;139346;-83
2024/03/20 04:26:46;;;;;;;193.10;64.60;;;;;;;-0.80;100.00;101199.34;214131;1285;140962;-82
2024/03/20 04:31:48;;;;;;;203.40;67.90;;;;;;;-0.81;100.00;101196.05;214305;1287;139558;-83
2024/03/20 04:36:49;;;;;;;118.70;46.50;;;;;;;-0.80;100.00;101185.61;213967;1288;141541;-82
2024/03/20 04:41:50;;;;;;;93.60;42.60;;;;;;;-0.79;100.00;101181.81;214467;1288;139739;-82
2024/03/20 04:46:50;;;;;;;86.00;37.90;;;;;;;-0.76;100.00;101178.39;214064;1285;139823;-82
2024/03/20 04:51:51;;;;;;;83.70;37.40;;;;;;;-0.72;100.00;101182.52;214432;1288;139399;-83
2024/03/20 04:56:51;;;;;;;81.10;37.50;;;;;;;-0.66;100.00;101188.94;214218;1287;140311;-82
2024/03/20 05:01:51;;;;;;;80.60;36.80;;;;;;;-0.58;100.00;101190.60;214557;1285;139419;-82
2024/03/20 05:06:52;;;;;;;79.30;35.30;;;;;;;-0.50;100.00;101194.73;214088;1283;140436;-82
2024/03/20 05:11:53;;;;;;;82.00;36.70;;;;;;;-0.44;100.00;101201.55;214529;1286;140001;-84
2024/03/20 05:16:53;;;;;;;85.20;37.00;;;;;;;-0.37;100.00;101206.13;214538;1288;140944;-84
2024/03/20 05:21:54;;;;;;;90.30;37.80;;;;;;;-0.31;100.00;101205.36;214037;1285;139443;-83
2024/03/20 05:26:55;;;;;;;89.40;37.80;;;;;;;-0.24;100.00;101202.81;214132;1287;140206;-83
2024/03/20 05:31:55;;;;;;;76.00;34.40;;;;;;;-0.18;100.00;101198.62;214546;1284;140634;-83
2024/03/20 05:36:56;;;;;;;84.40;37.90;;;;;;;-0.11;100.00;101195.52;212872;1288;144877;-82
2024/03/20 05:41:57;;;;;;;78.70;36.80;;;;;;;-0.04;100.00;101191.33;212887;1288;140114;-82
2024/03/20 05:46:57;;;;;;;127.60;52.90;;;;;;;0.02;100.00;101187.73;212577;1284;140541;-82
2024/03/20 05:51:58;;;;;;;86.30;39.20;;;;;;;0.11;100.00;101184.42;212934;1288;139453;-83
2024/03/20 05:56:58;;;;;;;87.30;38.90;;;;;;;0.21;100.00;101188.46;212453;1289;139927;-83
2024/03/20 06:01:59;;;;;;;96.30;40.50;;;;;;;0.32;100.00;101186.42;213052;1288;138986;-82
2024/03/20 06:07:00;;;;;;;84.50;38.00;;;;;;;0.45;100.00;101183.21;212787;1288;143203;-81
2024/03/20 06:12:04;;;;;;;83.20;37.30;;;;;;;0.58;100.00;101190.63;218612;1285;140268;-83
2024/03/20 06:17:04;;;;;;;78.00;37.40;;;;;;;0.71;100.00;101195.75;215237;1285;139406;-84
2024/03/20 06:22:05;;;;;;;90.60;40.20;;;;;;;0.86;100.00;101200.44;215173;1288;139075;-83
2024/03/20 06:27:05;;;;;;;78.20;36.50;;;;;;;1.02;100.00;101198.75;214496;1285;140473;-83
2024/03/20 06:32:09;;;;;;;73.50;36.80;;;;;;;1.18;100.00;101198.64;215532;1285;138968;-85
2024/03/20 06:37:10;;;;;;;81.80;38.70;;;;;;;1.34;100.00;101196.84;214484;1286;140713;-84
2024/03/20 06:42:16;;;;;;;84.80;36.40;;;;;;;1.51;100.00;101199.16;214959;1285;139210;-85
2024/03/20 06:47:19;;;;;;;86.20;40.60;;;;;;;1.67;100.00;101202.40;214495;1285;140464;-84
2024/03/20 06:52:21;;;;;;;79.50;38.00;;;;;;;1.83;100.00;101204.86;214975;1288;139289;-84
2024/03/20 06:57:21;;;;;;;87.80;40.40;;;;;;;2.00;100.00;101206.65;213857;1288;140544;-84
2024/03/20 07:02:23;;;;;;;93.00;41.20;;;;;;;2.14;100.00;101201.16;214557;1283;107676;-85
2024/03/20 07:07:24;;;;;;;95.20;39.60;;;;;;;2.27;100.00;101203.86;213832;1283;139968;-84
2024/03/20 07:12:24;;;;;;;87.10;39.30;;;;;;;2.39;100.00;101199.60;214302;1287;139032;-85
2024/03/20 07:17:25;;;;;;;86.00;39.30;;;;;;;2.49;100.00;101200.64;214472;1285;152054;-84
2024/03/20 07:22:27;;;;;;;90.40;40.40;;;;;;;2.60;100.00;101198.42;214912;1287;139251;-84
2024/03/20 07:27:28;;;;;;;264.40;83.80;;;;;;;2.76;100.00;101203.14;213622;1286;144966;-84
2024/03/20 07:32:28;;;;;;;131.60;47.70;;;;;;;2.94;100.00;101208.80;214404;1286;99480;-84
2024/03/20 07:37:28;;;;;;;106.00;41.20;;;;;;;3.15;100.00;101205.86;214014;1285;140992;-85
2024/03/20 07:42:29;;;;;;;69.60;35.30;;;;;;;3.43;100.00;101196.32;214261;1288;139618;-85
2024/03/20 07:47:29;;;;;;;77.20;36.60;;;;;;;3.70;100.00;101195.18;213685;1288;139855;-85
2024/03/20 07:52:30;;;;;;;109.30;42.30;;;;;;;3.91;100.00;101196.61;214208;1287;138977;-85
2024/03/20 07:57:32;;;;;;;70.70;35.40;;;;;;;4.10;100.00;101197.02;213952;1285;140296;-86
2024/03/20 08:02:32;;;;;;;76.10;36.80;;;;;;;4.28;100.00;101194.05;214448;1286;99347;-85
2024/03/20 08:07:33;;;;;;;80.80;38.40;;;;;;;4.51;100.00;101189.40;213637;1288;140117;-84
2024/03/20 08:12:33;;;;;;;79.10;35.50;;;;;;;4.72;100.00;101187.28;214391;1288;139215;-83
2024/03/20 08:17:36;;;;;;;68.10;32.60;;;;;;;4.92;100.00;101189.15;213732;1288;141403;-84
2024/03/20 08:22:37;;;;;;;68.10;32.60;;;;;;;5.12;100.00;101190.54;215567;1287;139023;-83
2024/03/20 08:27:37;;;;;;;96.70;41.10;;;;;;;5.38;100.00;101194.83;213788;1285;140804;-84
2024/03/20 08:32:37;;;;;;;52.30;28.70;;;;;;;5.70;100.00;101197.95;214402;1287;99858;-84
2024/03/20 08:37:39;;;;;;;50.30;27.10;;;;;;;6.02;100.00;101190.27;213897;1286;139259;-83
2024/03/20 08:42:41;;;;;;;57.60;29.40;;;;;;;6.31;100.00;101194.50;213006;1291;139565;-83
2024/03/20 08:47:42;;;;;;;51.50;25.60;;;;;;;6.60;100.00;101190.98;213482;1288;139756;-84
2024/03/20 08:52:43;;;;;;;49.70;27.40;;;;;;;6.97;99.62;101192.77;215642;1285;139433;-83
2024/03/20 08:57:43;;;;;;;47.40;26.60;;;;;;;7.34;97.49;101191.02;215037;1288;139036;-84
2024/03/20 09:02:43;;;;;;;51.70;27.40;;;;;;;7.80;97.43;101186.57;215638;1287;99315;-84
2024/03/20 09:07:44;;;;;;;49.30;26.60;;;;;;;8.23;95.74;101186.85;214443;1289;140863;-84
2024/03/20 09:12:45;;;;;;;49.10;27.50;;;;;;;8.61;92.93;101190.41;214622;1283;138805;-84
2024/03/20 09:17:48;;;;;;;48.90;26.70;;;;;;;9.00;92.32;101189.17;213761;1288;139919;-85
2024/03/20 09:22:49;;;;;;;50.80;28.40;;;;;;;9.46;90.83;101188.45;215693;1288;138912;-84
2024/03/20 09:27:50;;;;;;;56.00;28.40;;;;;;;9.90;88.26;101199.63;213873;1287;139747;-83
2024/03/20 09:32:50;;;;;;;48.50;27.40;;;;;;;10.28;87.27;101192.30;214315;1288;99341;-84
2024/03/20 09:37:50;;;;;;;44.70;26.00;;;;;;;10.83;83.09;101193.66;213757;1287;139504;-84
2024/03/20 09:42:52;;;;;;;43.20;24.30;;;;;;;11.24;83.98;101188.54;214206;1288;139829;-84
2024/03/20 09:47:55;;;;;;;40.30;23.10;;;;;;;11.58;81.62;101180.73;213792;1283;139906;-84
2024/03/20 09:52:56;;;;;;;38.60;24.60;;;;;;;11.94;79.56;101178.42;214184;1283;139196;-85
2024/03/20 09:57:57;;;;;;;38.10;23.80;;;;;;;12.30;77.60;101172.73;213445;1287;331831;-84
2024/03/20 10:02:59;;;;;;;55.80;25.10;;;;;;;12.90;75.54;101171.34;214371;1283;99380;-83
2024/03/20 10:07:59;;;;;;;61.10;26.90;;;;;;;13.20;73.67;101168.19;213768;1285;139063;-84
2024/03/20 10:13:00;;;;;;;41.70;24.30;;;;;;;13.57;70.93;101162.38;214328;1289;138531;-84
2024/03/20 10:18:01;;;;;;;34.50;20.80;;;;;;;13.72;70.37;101164.67;213861;1288;139260;-84
2024/03/20 10:23:01;;;;;;;35.00;23.30;;;;;;;13.88;69.46;101150.98;214549;1283;138676;-82
2024/03/20 10:28:03;;;;;;;34.00;21.80;;;;;;;14.10;67.31;101147.94;214853;1284;139785;-82
2024/03/20 10:33:07;;;;;;;37.60;23.00;;;;;;;14.07;65.03;101145.38;213216;1298;99312;-85
2024/03/20 10:38:09;;;;;;;33.80;20.90;;;;;;;14.06;65.79;101141.98;213098;1288;143787;-84
2024/03/20 10:43:10;;;;;;;37.40;24.40;;;;;;;14.23;67.23;101137.84;214372;1288;138501;-83
2024/03/20 10:48:15;;;;;;;33.20;21.90;;;;;;;14.42;64.85;101132.31;213932;1287;139718;-84
2024/03/20 10:53:17;;;;;;;37.50;22.50;;;;;;;14.48;64.67;101124.59;214357;1282;138611;-84
2024/03/20 10:58:18;;;;;;;34.50;21.20;;;;;;;14.59;62.16;101118.64;213820;1286;139564;-84
2024/03/20 11:03:52;;;;;;;35.80;20.90;;;;;;;14.38;61.64;101117.89;214268;1285;99769;-84
2024/03/20 11:08:54;;;;;;;32.70;20.00;;;;;;;14.21;59.41;101116.79;213771;1290;139322;-84
2024/03/20 11:13:58;;;;;;;37.60;23.60;;;;;;;14.26;61.29;101118.34;214118;1285;138914;-84
2024/03/20 11:19:05;;;;;;;41.90;24.00;;;;;;;14.27;61.69;101113.84;213847;1284;139087;-85
2024/03/20 11:24:06;;;;;;;40.00;24.20;;;;;;;14.38;60.99;101114.55;214202;1283;139197;-84
2024/03/20 11:29:10;;;;;;;41.30;24.10;;;;;;;14.32;60.14;101110.64;215485;1287;140472;-83
2024/03/20 11:34:11;;;;;;;40.20;25.10;;;;;;;14.21;61.04;101105.96;214228;1288;138746;-84
2024/03/20 11:39:12;;;;;;;41.20;25.40;;;;;;;14.50;61.17;101107.52;213970;1287;139459;-84
2024/03/20 11:44:13;;;;;;;37.90;25.40;;;;;;;14.63;59.49;101110.28;214195;1286;138410;-81
2024/03/20 11:49:15;;;;;;;38.40;24.70;;;;;;;14.60;59.17;101108.36;212390;1288;139458;-84
2024/03/20 11:54:17;;;;;;;38.90;23.90;;;;;;;14.58;59.06;101104.30;214294;1285;138679;-84
2024/03/20 11:59:19;;;;;;;34.60;22.40;;;;;;;14.39;58.33;101099.70;213841;1286;139446;-84
2024/03/20 12:04:21;;;;;;;42.50;25.60;;;;;;;14.54;60.04;101096.77;214299;1285;139762;-83
2024/03/20 12:09:24;;;;;;;40.10;25.80;;;;;;;14.35;56.67;101094.19;213747;1283;139353;-84
2024/03/20 12:14:24;;;;;;;44.10;24.10;;;;;;;13.92;57.77;101090.45;214400;1288;138750;-85
2024/03/20 12:19:24;;;;;;;37.20;23.30;;;;;;;14.05;59.80;101086.85;214182;1283;139141;-84
2024/03/20 12:24:25;;;;;;;57.90;24.90;;;;;;;14.20;59.99;101087.77;214436;1288;139572;-84
2024/03/20 12:29:25;;;;;;;36.80;24.00;;;;;;;14.39;59.02;101084.65;215577;1288;139367;-84
2024/03/20 12:34:26;;;;;;;35.80;22.10;;;;;;;14.31;58.74;101084.77;214296;1288;138490;-84
2024/03/20 12:39:31;;;;;;;36.40;22.10;;;;;;;14.44;58.34;101084.92;213768;1285;139431;-83
2024/03/20 12:44:34;;;;;;;35.30;22.60;;;;;;;14.53;58.45;101082.76;214523;1284;99749;-84
2024/03/20 12:49:35;;;;;;;43.30;23.40;;;;;;;14.59;57.96;101083.27;213610;1282;138438;-84
2024/03/20 12:54:35;;;;;;;40.70;23.90;;;;;;;14.39;56.71;101073.34;214384;1287;138970;-83
2024/03/20 12:59:37;;;;;;;38.70;23.70;;;;;;;14.16;57.04;101075.08;213674;1288;138871;-85
2024/03/20 13:04:37;;;;;;;39.30;24.30;;;;;;;14.24;58.57;101071.73;214276;1288;138018;-83
2024/03/20 13:09:38;;;;;;;36.60;22.90;;;;;;;14.30;57.55;101070.91;213875;1285;139815;-83
2024/03/20 13:14:38;;;;;;;35.00;21.70;;;;;;;14.10;59.22;101063.00;214508;1288;99315;-84
2024/03/20 13:19:39;;;;;;;36.30;21.00;;;;;;;14.08;57.27;101060.21;213842;1282;139991;-84
2024/03/20 13:24:39;;;;;;;33.40;21.20;;;;;;;14.12;59.98;101052.96;214339;1283;138644;-83
2024/03/20 13:29:46;;;;;;;32.70;19.90;;;;;;;14.25;59.31;101047.88;214066;1285;139144;-82
2024/03/20 13:34:47;;;;;;;33.70;19.50;;;;;;;14.26;59.03;101049.05;215013;1283;139442;-84
2024/03/20 13:40:05;;;;;;;33.20;21.70;;;;;;;14.22;57.81;101045.61;213796;1288;139875;-83
2024/03/20 13:45:14;;;;;;;30.30;19.70;;;;;;;14.15;57.44;101037.17;214446;1285;105429;-82
2024/03/20 13:50:15;;;;;;;35.60;21.20;;;;;;;14.10;58.22;101038.96;212356;1285;138874;-84
2024/03/20 13:55:16;;;;;;;34.00;20.50;;;;;;;14.03;57.82;101034.32;212935;1288;138644;-83
2024/03/20 14:00:17;;;;;;;33.40;20.20;;;;;;;13.95;57.12;101034.52;212713;1288;139132;-84
2024/03/20 14:05:21;;;;;;;32.30;20.30;;;;;;;13.95;58.56;101038.77;213189;1285;138510;-83
2024/03/20 14:10:21;;;;;;;38.10;22.30;;;;;;;13.91;57.43;101036.21;212421;1284;139610;-84
2024/03/20 14:15:23;;;;;;;36.20;21.30;;;;;;;13.76;57.92;101037.05;214168;1282;99337;-85
2024/03/20 14:20:25;;;;;;;35.00;21.60;;;;;;;13.68;57.90;101036.98;213705;1283;140313;-84
2024/03/20 14:25:26;;;;;;;38.20;20.50;;;;;;;13.66;59.70;101034.04;214385;1284;138446;-84
2024/03/20 14:30:27;;;;;;;35.50;21.10;;;;;;;13.60;58.42;101030.27;213798;1283;139986;-84
2024/03/20 14:35:27;;;;;;;37.60;20.90;;;;;;;13.50;58.99;101027.42;215009;1285;137532;-84
2024/03/20 14:40:28;;;;;;;36.10;20.80;;;;;;;13.43;59.24;101026.03;213738;1284;139811;-84
2024/03/20 14:45:28;;;;;;;33.90;20.70;;;;;;;13.31;60.02;101023.06;214329;1285;138741;-85
2024/03/20 14:50:29;;;;;;;33.10;19.10;;;;;;;13.24;60.75;101015.10;213877;1284;139792;-84
2024/03/20 14:55:31;;;;;;;34.30;19.70;;;;;;;13.20;61.79;101003.13;214237;1283;139366;-83
2024/03/20 15:00:31;;;;;;;33.90;20.20;;;;;;;13.18;62.48;100998.92;213816;1286;139344;-83
2024/03/20 15:05:32;;;;;;;34.50;20.00;;;;;;;13.15;62.95;100992.19;214331;1283;138496;-84
2024/03/20 15:10:32;;;;;;;35.50;19.90;;;;;;;13.10;63.81;100990.95;213793;1283;139486;-83
2024/03/20 15:15:33;;;;;;;35.50;22.10;;;;;;;13.07;64.33;100986.73;214333;1283;139948;-83
2024/03/20 15:20:37;;;;;;;36.50;21.10;;;;;;;13.02;62.59;100981.95;213724;1283;139484;-83
2024/03/20 15:25:37;;;;;;;37.10;21.50;;;;;;;12.94;62.33;100983.75;214280;1284;138300;-83
2024/03/20 15:30:38;;;;;;;33.90;20.60;;;;;;;12.76;60.00;100988.03;213605;1285;139556;-83
2024/03/20 15:35:39;;;;;;;37.30;21.70;;;;;;;12.68;63.80;100989.45;214768;1287;138518;-82
2024/03/20 15:40:39;;;;;;;41.60;21.20;;;;;;;12.68;61.63;100990.08;213803;1283;140444;-82
2024/03/20 15:45:40;;;;;;;35.10;19.80;;;;;;;12.64;61.19;100990.66;214130;1282;140340;-83
2024/03/20 15:50:40;;;;;;;40.00;20.80;;;;;;;12.55;61.78;100989.22;213917;1286;140470;-83
2024/03/20 15:55:41;;;;;;;36.20;19.80;;;;;;;12.47;64.94;100992.20;214172;1285;138489;-83
2024/03/20 16:00:41;;;;;;;34.10;20.30;;;;;;;12.39;65.87;101001.71;213811;1283;139311;-80
2024/03/20 16:05:42;;;;;;;38.10;22.70;;;;;;;12.30;64.32;100993.88;214291;1287;138640;-83
2024/03/20 16:10:43;;;;;;;37.50;20.80;;;;;;;12.24;64.65;100999.30;212971;1288;139999;-82
2024/03/20 16:15:45;;;;;;;35.60;22.20;;;;;;;12.09;60.31;101004.63;212984;1288;138829;-82
2024/03/20 16:20:46;;;;;;;33.60;19.90;;;;;;;11.96;63.34;101013.65;212904;1286;139519;-83
2024/03/20 16:25:47;;;;;;;46.30;23.80;;;;;;;11.82;64.97;101012.02;212970;1285;138306;-83
2024/03/20 16:30:48;;;;;;;42.40;24.90;;;;;;;11.72;66.84;101013.84;212440;1283;139558;-83
2024/03/20 16:35:49;;;;;;;42.80;23.90;;;;;;;11.62;68.95;101016.67;213121;1286;138499;-83
2024/03/20 16:40:49;;;;;;;52.10;30.20;;;;;;;11.50;68.15;101017.62;213281;1288;140862;-83
2024/03/20 16:45:57;;;;;;;47.80;28.10;;;;;;;11.38;65.80;101018.04;213305;1286;138534;-83
2024/03/20 16:50:57;;;;;;;40.30;24.40;;;;;;;11.27;66.64;101021.15;213471;1283;139769;-84
2024/03/20 16:55:58;;;;;;;39.70;23.60;;;;;;;11.12;68.61;101024.98;214523;1282;138515;-84
2024/03/20 17:00:59;;;;;;;38.40;20.80;;;;;;;10.97;69.18;101023.12;213819;1283;139975;-82
2024/03/20 17:05:59;;;;;;;56.90;30.10;;;;;;;10.82;69.56;101017.40;214147;1288;139223;-82
2024/03/20 17:11:00;;;;;;;46.20;25.40;;;;;;;10.68;69.59;101018.47;214009;1288;139550;-83
2024/03/20 17:16:00;;;;;;;93.10;37.90;;;;;;;10.46;71.03;101018.33;214629;1285;138475;-84
2024/03/20 17:21:01;;;;;;;159.60;53.90;;;;;;;10.24;71.54;101018.10;213932;1284;139469;-82
2024/03/20 17:26:01;;;;;;;157.80;56.10;;;;;;;10.10;73.21;101015.75;214447;1282;138673;-84
2024/03/20 17:31:02;;;;;;;103.40;43.60;;;;;;;9.97;74.86;101017.14;214866;1287;139161;-84
2024/03/20 17:36:06;;;;;;;278.80;109.60;;;;;;;9.88;76.09;101020.40;215254;1283;138658;-83
2024/03/20 17:41:07;;;;;;;314.30;121.50;;;;;;;9.72;75.86;101019.05;215671;1288;140164;-84
2024/03/20 17:46:07;;;;;;;216.70;86.00;;;;;;;9.59;78.72;101021.57;215992;1285;138626;-84
2024/03/20 17:51:08;;;;;;;157.20;66.50;;;;;;;9.53;78.79;101027.09;215340;1284;139795;-87
2024/03/20 17:56:12;;;;;;;142.70;61.40;;;;;;;9.42;78.83;101028.08;214478;1285;138644;-84
2024/03/20 18:01:18;;;;;;;102.10;50.30;;;;;;;9.30;79.97;101028.38;213907;1286;139448;-83
2024/03/20 18:06:20;;;;;;;109.70;50.00;;;;;;;9.18;81.04;101032.15;214312;1287;138395;-82
2024/03/20 18:11:21;;;;;;;87.90;45.90;;;;;;;9.07;81.78;101035.77;214095;1284;152640;-84
2024/03/20 18:16:23;;;;;;;83.20;41.80;;;;;;;8.94;81.40;101037.86;213839;1284;141137;-84
2024/03/20 18:21:29;;;;;;;76.90;38.80;;;;;;;8.88;82.28;101031.96;214563;1288;99372;-85
2024/03/20 18:26:30;;;;;;;71.30;38.00;;;;;;;8.82;83.80;101032.27;213768;1288;140025;-84
2024/03/20 18:31:30;;;;;;;79.70;43.20;;;;;;;8.73;84.30;101036.57;214350;1285;139233;-83
2024/03/20 18:36:31;;;;;;;76.60;42.40;;;;;;;8.67;84.39;101034.05;213895;1282;139889;-84
2024/03/20 18:41:34;;;;;;;73.90;39.70;;;;;;;8.65;84.11;101032.34;215044;1288;139617;-84
2024/03/20 18:46:34;;;;;;;196.60;71.10;;;;;;;8.59;84.83;101035.08;214253;1284;140122;-84
2024/03/20 18:51:35;;;;;;;1114.90;411.40;;;;;;;8.53;85.38;101038.02;214594;1284;139463;-84
2024/03/20 18:56:36;;;;;;;972.10;357.60;;;;;;;8.46;86.70;101042.47;214185;1285;141845;-84
2024/03/20 19:01:38;;;;;;;950.10;352.70;;;;;;;8.40;86.96;101039.23;214355;1285;139229;-84
2024/03/20 19:06:40;;;;;;;879.10;318.90;;;;;;;8.36;87.39;101039.81;213930;1285;141294;-84
2024/03/20 19:11:41;;;;;;;792.40;289.30;;;;;;;8.30;88.23;101041.89;214385;1285;139295;-84
2024/03/20 19:16:42;;;;;;;655.10;231.90;;;;;;;8.25;88.95;101045.67;214019;1283;145244;-85
2024/03/20 19:21:43;;;;;;;406.50;139.10;;;;;;;8.23;89.34;101041.92;214505;1285;139359;-84
2024/03/20 19:26:43;;;;;;;286.20;95.60;;;;;;;8.19;89.81;101037.45;214195;1285;140946;-86
2024/03/20 19:31:44;;;;;;;244.70;90.90;;;;;;;8.17;89.35;101031.76;214565;1288;139626;-84
2024/03/20 19:36:44;;;;;;;264.60;97.20;;;;;;;8.14;89.61;101029.89;214019;1284;140009;-84
2024/03/20 19:41:45;;;;;;;99.30;49.40;;;;;;;8.12;88.57;101021.66;215005;1284;139510;-83
2024/03/20 19:46:46;;;;;;;142.70;58.60;;;;;;;8.03;87.25;101020.92;214152;1285;140287;-83
2024/03/20 19:51:46;;;;;;;112.30;51.30;;;;;;;8.01;88.12;101020.77;214211;1285;139155;-84
2024/03/20 19:56:51;;;;;;;136.10;54.90;;;;;;;7.97;88.58;101023.30;214269;1283;140155;-83
2024/03/20 20:01:51;;;;;;;186.80;71.40;;;;;;;7.93;90.25;101023.72;214976;1285;139516;-83
2024/03/20 20:06:53;;;;;;;151.60;61.90;;;;;;;7.93;89.76;101025.52;214510;1288;140621;-83
2024/03/20 20:11:54;;;;;;;180.20;67.90;;;;;;;7.91;90.09;101028.05;214548;1283;139853;-84
2024/03/20 20:16:54;;;;;;;138.30;54.90;;;;;;;7.90;89.67;101025.18;213889;1283;139885;-84
2024/03/20 20:21:56;;;;;;;119.50;54.10;;;;;;;7.88;89.60;101028.82;214270;1285;139454;-84
2024/03/20 20:26:56;;;;;;;133.20;56.30;;;;;;;7.83;90.65;101039.07;214128;1282;140302;-84
2024/03/20 20:31:57;;;;;;;157.50;62.50;;;;;;;7.74;90.82;101037.45;214289;1287;139932;-84
2024/03/20 20:36:57;;;;;;;110.90;49.70;;;;;;;7.72;91.02;101042.17;213968;1287;139865;-84
2024/03/20 20:41:58;;;;;;;161.20;66.40;;;;;;;7.69;92.22;101042.30;214675;1285;139272;-84
2024/03/20 20:46:59;;;;;;;169.50;68.60;;;;;;;7.68;91.84;101038.67;213970;1285;141665;-83
2024/03/20 20:51:59;;;;;;;116.60;53.40;;;;;;;7.69;91.74;101030.64;214672;1285;139096;-84
2024/03/20 20:57:00;;;;;;;103.60;45.70;;;;;;;7.68;90.97;101032.01;214582;1285;145213;-86
2024/03/20 21:23:17;;;;;;;85.30;43.10;;;;;;;7.50;92.16;101027.02;214896;1285;138985;-85
2024/03/20 21:28:17;;;;;;;97.40;45.10;;;;;;;7.51;90.83;101024.73;214291;1285;139820;-82
2024/03/20 21:33:19;;;;;;;73.50;40.10;;;;;;;7.50;89.84;101023.35;214953;1288;99829;-84
2024/03/20 21:38:19;;;;;;;78.40;40.30;;;;;;;7.46;88.87;101016.10;214701;1285;140636;-83
2024/03/20 21:43:19;;;;;;;77.80;43.30;;;;;;;7.45;89.38;101023.90;215285;1285;138705;-84
2024/03/20 21:48:20;;;;;;;78.70;39.60;;;;;;;7.44;88.97;101017.79;214640;1284;138817;-85
2024/03/20 21:53:21;;;;;;;80.60;41.80;;;;;;;7.47;89.08;101021.14;214257;1285;456070;-85
2024/03/20 21:58:22;;;;;;;79.20;41.30;;;;;;;7.45;88.71;101011.70;214277;1282;139907;-84
2024/03/20 22:03:23;;;;;;;72.50;40.00;;;;;;;7.44;88.00;101006.09;214920;1285;108224;-82
2024/03/20 22:08:24;;;;;;;74.60;39.50;;;;;;;7.44;87.58;101002.96;214575;1287;139766;-83
2024/03/20 22:13:26;;;;;;;64.60;36.60;;;;;;;7.45;87.28;101005.67;214779;1288;139052;-84
2024/03/20 22:18:26;;;;;;;70.40;37.70;;;;;;;7.48;86.53;101004.29;214222;1288;140987;-83
2024/03/20 22:23:27;;;;;;;76.60;37.90;;;;;;;7.50;86.22;100998.34;214857;1284;138994;-83
2024/03/20 22:28:27;;;;;;;72.70;34.70;;;;;;;7.52;86.09;100992.22;214512;1285;139629;-83
2024/03/20 22:33:28;;;;;;;66.40;35.80;;;;;;;7.55;85.16;100988.70;215450;1288;100981;-84